Time;durP1;ratioP1;P1;durP2;ratioP2;P2;SDS_P1;SDS_P2;PMS_P1;PMS_P2;Temp;Humidity;BMP_temperature;BMP_pressure;BME280_temperature;BME280_humidity;BME280_pressure;Samples;Min_cycle;Max_cycle;Signal;HPM_P1;HPM_P2
2021/03/15 00:01:04;;;;;;;25.65;9.90;;;;;;;;;;5009587;28;20444;-66
2021/03/15 00:03:30;;;;;;;21.58;9.40;;;;;;;;;;5009649;28;20075;-67
2021/03/15 00:05:57;;;;;;;22.65;9.82;;;;;;;;;;5009747;28;20026;-65
2021/03/15 00:08:23;;;;;;;23.45;11.43;;;;;;;;;;5008621;28;20030;-66
2021/03/15 00:10:49;;;;;;;19.25;9.18;;;;;;;;;;5009606;28;20022;-66
2021/03/15 00:13:15;;;;;;;18.50;8.45;;;;;;;;;;5008549;28;20489;-65
2021/03/15 00:15:42;;;;;;;25.25;8.43;;;;;;;;;;5009045;28;20435;-65
2021/03/15 00:18:08;;;;;;;19.85;7.88;;;;;;;;;;5009129;28;20030;-66
2021/03/15 00:20:34;;;;;;;21.08;8.18;;;;;;;;;;5009234;28;20153;-66
2021/03/15 00:23:00;;;;;;;24.30;11.05;;;;;;;;;;5009356;28;20068;-66
2021/03/15 00:25:26;;;;;;;19.40;7.70;;;;;;;;;;5009056;28;20029;-67
2021/03/15 00:27:52;;;;;;;20.25;8.55;;;;;;;;;;5008511;28;20026;-66
2021/03/15 00:30:19;;;;;;;19.83;8.80;;;;;;;;;;5001700;28;20504;-67
2021/03/15 00:32:46;;;;;;;21.75;7.60;;;;;;;;;;5009259;28;20033;-66
2021/03/15 00:35:12;;;;;;;24.15;8.10;;;;;;;;;;5007886;28;20037;-65
2021/03/15 00:37:39;;;;;;;19.90;7.80;;;;;;;;;;5009166;28;20026;-65
2021/03/15 00:40:07;;;;;;;19.17;8.18;;;;;;;;;;5007733;28;20594;-64
2021/03/15 00:42:33;;;;;;;24.33;9.10;;;;;;;;;;5009070;28;20022;-65
2021/03/15 00:44:59;;;;;;;16.55;7.22;;;;;;;;;;5008967;28;20037;-66
2021/03/15 00:47:25;;;;;;;18.20;8.05;;;;;;;;;;5007636;28;20033;-64
2021/03/15 00:49:51;;;;;;;22.23;8.63;;;;;;;;;;5010531;28;20075;-64
2021/03/15 00:52:17;;;;;;;18.63;8.73;;;;;;;;;;5010767;28;20026;-65
2021/03/15 00:54:44;;;;;;;19.73;8.57;;;;;;;;;;5011827;28;20096;-65
2021/03/15 00:57:10;;;;;;;21.33;8.20;;;;;;;;;;5009762;22;20137;-66
2021/03/15 00:59:36;;;;;;;18.20;8.30;;;;;;;;;;5013211;28;20029;-65
2021/03/15 01:02:03;;;;;;;24.30;9.55;;;;;;;;;;5012291;28;20128;-64
2021/03/15 01:04:29;;;;;;;20.73;8.90;;;;;;;;;;5011928;28;20030;-62
2021/03/15 01:06:58;;;;;;;21.23;9.60;;;;;;;;;;4990306;28;20092;-63
2021/03/15 01:09:23;;;;;;;22.17;9.20;;;;;;;;;;4992456;28;20079;-65
2021/03/15 01:11:49;;;;;;;19.80;9.18;;;;;;;;;;4991113;28;20097;-65
2021/03/15 01:14:16;;;;;;;21.80;10.13;;;;;;;;;;4991239;28;20088;-65
2021/03/15 01:16:42;;;;;;;22.13;10.10;;;;;;;;;;4990910;28;20022;-63
2021/03/15 01:19:08;;;;;;;20.55;10.23;;;;;;;;;;4992671;28;20260;-65
2021/03/15 01:21:34;;;;;;;23.10;12.10;;;;;;;;;;4993212;28;20117;-65
2021/03/15 01:24:00;;;;;;;20.38;10.75;;;;;;;;;;4992441;28;20049;-66
2021/03/15 01:26:26;;;;;;;23.30;12.35;;;;;;;;;;4992840;28;20026;-65
2021/03/15 01:28:52;;;;;;;25.17;11.18;;;;;;;;;;4992215;28;20022;-67
2021/03/15 01:31:19;;;;;;;25.30;12.63;;;;;;;;;;4993110;28;20101;-65
2021/03/15 01:33:45;;;;;;;25.58;13.73;;;;;;;;;;4993539;28;20026;-66
2021/03/15 01:36:11;;;;;;;33.45;15.85;;;;;;;;;;4991375;28;20042;-67
2021/03/15 01:38:37;;;;;;;27.42;15.38;;;;;;;;;;4992799;28;20041;-66
2021/03/15 01:41:04;;;;;;;25.85;14.57;;;;;;;;;;4993003;28;20026;-68
2021/03/15 01:43:30;;;;;;;24.85;13.20;;;;;;;;;;4991677;28;20049;-67
2021/03/15 01:45:55;;;;;;;20.17;11.15;;;;;;;;;;4992575;28;20058;-63
2021/03/15 01:48:21;;;;;;;19.85;11.52;;;;;;;;;;4992455;28;20129;-65
2021/03/15 01:50:49;;;;;;;21.15;11.15;;;;;;;;;;4975434;28;20037;-66
2021/03/15 01:53:16;;;;;;;20.45;11.10;;;;;;;;;;4993130;28;20030;-64
2021/03/15 01:55:42;;;;;;;18.25;11.00;;;;;;;;;;4992687;28;20031;-58
2021/03/15 01:58:08;;;;;;;18.45;11.00;;;;;;;;;;4992439;28;20034;-63
2021/03/15 02:00:34;;;;;;;21.35;12.40;;;;;;;;;;4991780;28;20030;-64
2021/03/15 02:03:01;;;;;;;21.13;12.25;;;;;;;;;;4991891;28;20389;-64
2021/03/15 02:05:28;;;;;;;23.17;11.90;;;;;;;;;;4993518;28;20033;-64
2021/03/15 02:07:54;;;;;;;21.70;11.07;;;;;;;;;;4992268;28;20429;-65
2021/03/15 02:10:21;;;;;;;20.10;11.52;;;;;;;;;;4993152;28;20044;-63
2021/03/15 02:13:06;;;;;;;20.00;11.15;;;;;;;;;;4992974;28;20033;-65
2021/03/15 02:15:31;;;;;;;18.88;11.05;;;;;;;;;;4993201;28;20112;-65
2021/03/15 02:18:16;;;;;;;19.75;11.60;;;;;;;;;;4996305;28;20074;-66
2021/03/15 02:21:01;;;;;;;22.10;12.60;;;;;;;;;;4997068;28;20497;-65
2021/03/15 02:23:45;;;;;;;20.92;11.80;;;;;;;;;;4997083;28;20110;-65
2021/03/15 02:26:30;;;;;;;21.30;12.10;;;;;;;;;;4996425;28;20026;-65
2021/03/15 02:29:14;;;;;;;21.90;12.63;;;;;;;;;;4996636;28;20119;-67
2021/03/15 02:31:49;;;;;;;22.45;12.23;;;;;;;;;;4996914;28;20031;-65
2021/03/15 02:34:34;;;;;;;24.70;13.43;;;;;;;;;;4996732;28;20544;-65
2021/03/15 02:37:03;;;;;;;21.10;15.13;;;;;;;;;;4994813;28;20030;-67
2021/03/15 02:39:33;;;;;;;22.70;14.57;;;;;;;;;;4996397;28;20531;-65
2021/03/15 02:42:01;;;;;;;23.00;14.35;;;;;;;;;;4996555;28;20031;-66
2021/03/15 02:44:29;;;;;;;27.00;14.07;;;;;;;;;;4996727;28;20072;-62
2021/03/15 02:46:55;;;;;;;20.43;14.33;;;;;;;;;;4995708;28;20034;-64
2021/03/15 02:49:22;;;;;;;21.83;13.68;;;;;;;;;;4996429;28;20044;-65
2021/03/15 02:51:49;;;;;;;22.77;14.75;;;;;;;;;;4994801;28;20420;-65
2021/03/15 02:54:16;;;;;;;22.02;13.50;;;;;;;;;;4995974;28;20026;-65
2021/03/15 02:56:43;;;;;;;22.73;13.82;;;;;;;;;;4994507;28;20061;-66
2021/03/15 02:59:10;;;;;;;19.55;13.10;;;;;;;;;;4996439;28;20026;-65
2021/03/15 03:01:37;;;;;;;21.20;14.07;;;;;;;;;;4995953;28;20446;-65
2021/03/15 03:04:03;;;;;;;20.13;12.90;;;;;;;;;;4994767;28;20061;-65
2021/03/15 03:06:31;;;;;;;22.13;14.13;;;;;;;;;;4993799;28;20022;-66
2021/03/15 03:08:58;;;;;;;19.95;12.95;;;;;;;;;;4995154;28;20025;-65
2021/03/15 03:11:25;;;;;;;19.30;12.57;;;;;;;;;;4994214;28;20477;-65
2021/03/15 03:13:52;;;;;;;21.67;13.38;;;;;;;;;;4994572;28;20486;-63
2021/03/15 03:16:22;;;;;;;23.88;13.20;;;;;;;;;;4995028;28;20033;-65
2021/03/15 03:18:52;;;;;;;20.13;14.00;;;;;;;;;;4995623;28;20032;-66
2021/03/15 03:21:21;;;;;;;21.48;13.65;;;;;;;;;;4994476;28;20042;-64
2021/03/15 03:23:50;;;;;;;21.13;13.38;;;;;;;;;;4995692;28;20028;-66
2021/03/15 03:26:16;;;;;;;22.30;13.95;;;;;;;;;;4994434;28;20033;-64
2021/03/15 03:28:44;;;;;;;21.33;13.90;;;;;;;;;;4994177;28;20499;-64
2021/03/15 03:31:10;;;;;;;13.35;8.10;;;;;;;;;;4995573;28;20033;-66
2021/03/15 03:33:36;;;;;;;13.40;8.25;;;;;;;;;;4994091;28;20031;-65
2021/03/15 03:36:03;;;;;;;13.60;8.60;;;;;;;;;;4995056;28;20374;-66
2021/03/15 03:38:29;;;;;;;13.85;8.95;;;;;;;;;;4993779;28;20026;-66
2021/03/15 03:40:57;;;;;;;14.48;9.90;;;;;;;;;;4994070;28;20034;-66
2021/03/15 03:43:23;;;;;;;13.48;8.52;;;;;;;;;;4993831;28;20022;-64
2021/03/15 03:45:49;;;;;;;13.20;8.13;;;;;;;;;;4994822;28;20162;-64
2021/03/15 03:48:15;;;;;;;13.50;8.52;;;;;;;;;;4994361;28;20026;-64
2021/03/15 03:50:41;;;;;;;13.30;8.20;;;;;;;;;;4993840;28;20141;-64
2021/03/15 03:53:07;;;;;;;13.38;8.25;;;;;;;;;;4994959;28;20093;-65
2021/03/15 03:55:39;;;;;;;13.27;8.23;;;;;;;;;;4993837;28;20060;-65
2021/03/15 03:58:08;;;;;;;13.25;8.10;;;;;;;;;;4994050;28;20046;-65
2021/03/15 04:00:35;;;;;;;12.85;7.70;;;;;;;;;;4994948;28;20034;-67
2021/03/15 04:03:14;;;;;;;13.40;8.20;;;;;;;;;;4993581;28;20034;-67
2021/03/15 04:05:42;;;;;;;13.30;7.93;;;;;;;;;;4994932;28;20019;-66
2021/03/15 04:08:10;;;;;;;12.77;7.70;;;;;;;;;;4994326;28;20025;-68
2021/03/15 04:10:36;;;;;;;13.27;8.45;;;;;;;;;;4993104;28;20285;-65
2021/03/15 04:13:04;;;;;;;13.60;8.77;;;;;;;;;;4994686;28;20030;-66
2021/03/15 04:15:31;;;;;;;13.80;9.18;;;;;;;;;;4994313;28;20053;-67
2021/03/15 04:17:58;;;;;;;13.68;8.95;;;;;;;;;;4993810;28;20034;-66
2021/03/15 04:20:36;;;;;;;13.57;8.80;;;;;;;;;;4993241;28;20026;-66
2021/03/15 04:23:04;;;;;;;13.88;9.68;;;;;;;;;;4993424;28;20657;-68
2021/03/15 04:25:32;;;;;;;13.93;9.57;;;;;;;;;;4993239;28;20177;-67
2021/03/15 04:27:59;;;;;;;13.70;9.05;;;;;;;;;;4993620;28;20270;-67
2021/03/15 04:30:25;;;;;;;13.48;8.43;;;;;;;;;;4992925;28;20038;-67
2021/03/15 04:32:55;;;;;;;13.30;8.13;;;;;;;;;;4994350;28;20034;-66
2021/03/15 04:35:25;;;;;;;13.45;8.45;;;;;;;;;;4994065;28;20033;-66
2021/03/15 04:37:53;;;;;;;13.30;8.35;;;;;;;;;;4993304;28;20030;-65
2021/03/15 04:40:19;;;;;;;17.00;9.27;;;;;;;;;;4993575;28;20030;-68
2021/03/15 04:42:46;;;;;;;13.48;8.35;;;;;;;;;;4992704;28;20029;-64
2021/03/15 04:45:12;;;;;;;13.38;8.13;;;;;;;;;;4993879;28;20661;-63
2021/03/15 04:47:39;;;;;;;13.40;8.30;;;;;;;;;;4992111;28;20049;-64
2021/03/15 04:50:06;;;;;;;12.93;7.93;;;;;;;;;;4992566;28;20034;-64
2021/03/15 04:52:33;;;;;;;13.18;8.10;;;;;;;;;;4994044;28;20022;-63
2021/03/15 04:54:59;;;;;;;13.18;7.80;;;;;;;;;;4992693;28;20537;-65
2021/03/15 04:57:26;;;;;;;13.45;8.30;;;;;;;;;;4992551;28;20034;-63
2021/03/15 04:59:52;;;;;;;13.02;7.80;;;;;;;;;;4993601;28;20042;-64
2021/03/15 05:02:21;;;;;;;12.95;7.65;;;;;;;;;;4993655;28;20105;-65
2021/03/15 05:04:48;;;;;;;12.95;7.68;;;;;;;;;;4992283;28;20081;-65
2021/03/15 05:07:17;;;;;;;13.35;8.05;;;;;;;;;;4992690;28;20370;-65
2021/03/15 05:09:43;;;;;;;13.23;8.18;;;;;;;;;;4992124;28;20019;-66
2021/03/15 05:12:10;;;;;;;13.40;8.30;;;;;;;;;;4993479;28;20078;-65
2021/03/15 05:14:36;;;;;;;13.38;7.95;;;;;;;;;;4993390;28;20101;-65
2021/03/15 05:17:03;;;;;;;13.48;8.27;;;;;;;;;;4993327;28;20027;-64
2021/03/15 05:19:30;;;;;;;13.23;8.00;;;;;;;;;;4993327;28;20031;-64
2021/03/15 05:21:57;;;;;;;13.38;8.30;;;;;;;;;;4991657;28;20026;-65
2021/03/15 05:24:23;;;;;;;13.00;7.97;;;;;;;;;;4993175;28;20058;-66
2021/03/15 05:26:49;;;;;;;13.88;9.07;;;;;;;;;;4992733;28;20023;-66
2021/03/15 05:29:16;;;;;;;13.45;8.20;;;;;;;;;;4992955;28;20054;-65
2021/03/15 05:31:44;;;;;;;13.57;8.50;;;;;;;;;;4991851;28;20114;-64
2021/03/15 05:34:10;;;;;;;13.65;8.85;;;;;;;;;;4993043;28;20097;-65
2021/03/15 05:36:37;;;;;;;13.68;8.95;;;;;;;;;;4992255;28;20065;-66
2021/03/15 05:39:04;;;;;;;13.70;8.82;;;;;;;;;;4992874;28;20034;-65
2021/03/15 05:41:42;;;;;;;13.50;8.52;;;;;;;;;;4991236;28;20646;-65
2021/03/15 05:44:20;;;;;;;13.50;8.60;;;;;;;;;;4992762;28;20046;-66
2021/03/15 05:47:04;;;;;;;13.68;8.85;;;;;;;;;;4992193;28;20097;-66
2021/03/15 05:49:56;;;;;;;13.60;8.82;;;;;;;;;;4992763;28;20046;-65
2021/03/15 05:52:46;;;;;;;13.52;8.52;;;;;;;;;;4988911;28;20042;-66
2021/03/15 05:55:22;;;;;;;13.52;8.50;;;;;;;;;;4992478;28;20022;-65
2021/03/15 05:58:00;;;;;;;13.60;8.73;;;;;;;;;;4991753;28;20026;-67
2021/03/15 06:00:26;;;;;;;16.23;9.52;;;;;;;;;;4992340;28;20074;-66
2021/03/15 06:02:52;;;;;;;13.48;8.48;;;;;;;;;;4991259;28;20030;-67
2021/03/15 06:05:18;;;;;;;13.45;8.35;;;;;;;;;;4992274;28;20512;-65
2021/03/15 06:07:48;;;;;;;13.07;7.90;;;;;;;;;;4990582;28;20581;-66
2021/03/15 06:10:29;;;;;;;13.18;8.15;;;;;;;;;;4992544;28;20030;-67
2021/03/15 06:13:02;;;;;;;14.50;8.73;;;;;;;;;;4991515;28;20121;-66
2021/03/15 06:15:39;;;;;;;13.38;8.23;;;;;;;;;;4990868;28;20117;-64
2021/03/15 06:18:05;;;;;;;12.95;7.82;;;;;;;;;;4990172;28;20042;-66
2021/03/15 06:20:36;;;;;;;13.15;8.10;;;;;;;;;;4993217;28;20444;-64
2021/03/15 06:23:03;;;;;;;13.30;8.00;;;;;;;;;;4991873;28;20046;-66
2021/03/15 06:25:30;;;;;;;13.18;8.00;;;;;;;;;;4991973;28;20022;-66
2021/03/15 06:27:56;;;;;;;13.32;8.18;;;;;;;;;;4989827;28;20027;-66
2021/03/15 06:30:23;;;;;;;13.07;7.75;;;;;;;;;;4992571;28;20410;-65
2021/03/15 06:32:53;;;;;;;13.43;8.32;;;;;;;;;;4992496;28;20042;-66
2021/03/15 06:35:20;;;;;;;13.35;7.90;;;;;;;;;;4990825;28;20034;-66
2021/03/15 06:37:46;;;;;;;13.50;8.32;;;;;;;;;;4991569;28;20026;-66
2021/03/15 06:40:13;;;;;;;13.00;7.80;;;;;;;;;;4990534;28;20034;-63
2021/03/15 06:42:40;;;;;;;13.27;7.97;;;;;;;;;;4992077;28;20026;-64
2021/03/15 06:45:07;;;;;;;13.15;7.82;;;;;;;;;;4990730;28;20500;-64
2021/03/15 06:47:33;;;;;;;13.13;7.90;;;;;;;;;;4990366;28;20458;-64
2021/03/15 06:50:00;;;;;;;13.20;7.97;;;;;;;;;;4991139;28;20026;-64
2021/03/15 06:52:26;;;;;;;13.10;8.00;;;;;;;;;;4992721;28;20030;-65
2021/03/15 06:55:00;;;;;;;13.27;8.00;;;;;;;;;;4992763;28;20046;-63
2021/03/15 06:57:26;;;;;;;28.67;10.85;;;;;;;;;;5020988;23;20045;-65
2021/03/15 06:59:53;;;;;;;13.15;8.05;;;;;;;;;;5028513;28;20476;-66
2021/03/15 07:02:20;;;;;;;12.98;7.72;;;;;;;;;;5030329;28;20370;-65
2021/03/15 07:04:46;;;;;;;13.27;8.00;;;;;;;;;;5033374;28;20449;-65
2021/03/15 07:07:20;;;;;;;13.35;8.05;;;;;;;;;;5025914;28;20030;-66
2021/03/15 07:09:48;;;;;;;13.27;8.10;;;;;;;;;;5013605;28;20022;-65
2021/03/15 07:12:17;;;;;;;13.13;7.88;;;;;;;;;;4996397;28;20041;-66
2021/03/15 07:14:43;;;;;;;13.07;7.88;;;;;;;;;;5012081;28;20129;-64
2021/03/15 07:17:19;;;;;;;13.10;7.93;;;;;;;;;;5012563;28;20092;-66
2021/03/15 07:19:45;;;;;;;12.85;7.60;;;;;;;;;;5012019;28;20056;-66
2021/03/15 07:22:26;;;;;;;13.30;7.88;;;;;;;;;;5013336;28;20218;-66
2021/03/15 07:25:11;;;;;;;12.82;7.57;;;;;;;;;;5013535;28;20022;-66
2021/03/15 07:27:39;;;;;;;13.60;9.07;;;;;;;;;;5012639;28;20053;-66
2021/03/15 07:30:23;;;;;;;13.30;7.95;;;;;;;;;;5013535;28;20025;-65
2021/03/15 07:32:50;;;;;;;12.98;7.60;;;;;;;;;;5012034;28;20070;-65
2021/03/15 07:35:36;;;;;;;12.60;7.72;;;;;;;;;;5013668;28;20610;-66
2021/03/15 07:38:03;;;;;;;12.82;7.47;;;;;;;;;;5011414;28;20030;-64
2021/03/15 07:40:32;;;;;;;13.05;7.75;;;;;;;;;;5011926;28;20030;-66
2021/03/15 07:42:59;;;;;;;12.98;7.60;;;;;;;;;;5013040;28;20070;-65
2021/03/15 07:45:32;;;;;;;13.15;7.80;;;;;;;;;;5012733;28;20038;-66
2021/03/15 07:48:09;;;;;;;12.95;7.57;;;;;;;;;;5011196;28;20022;-64
2021/03/15 07:50:35;;;;;;;13.05;7.68;;;;;;;;;;5011535;28;20078;-63
2021/03/15 07:53:02;;;;;;;12.27;7.15;;;;;;;;;;5012716;28;20029;-65
2021/03/15 07:55:35;;;;;;;12.80;7.47;;;;;;;;;;5011166;28;20032;-65
2021/03/15 07:58:02;;;;;;;12.25;7.10;;;;;;;;;;4997297;28;20120;-65
2021/03/15 08:00:29;;;;;;;14.15;8.70;;;;;;;;;;5010143;28;20044;-63
2021/03/15 08:02:56;;;;;;;12.98;7.60;;;;;;;;;;5017334;28;20022;-64
2021/03/15 08:05:22;;;;;;;13.10;8.27;;;;;;;;;;4994498;28;20025;-65
2021/03/15 08:07:49;;;;;;;12.82;7.50;;;;;;;;;;5011710;28;20057;-65
2021/03/15 08:10:15;;;;;;;13.18;7.80;;;;;;;;;;5012553;28;20454;-65
2021/03/15 08:12:45;;;;;;;12.85;7.50;;;;;;;;;;4994593;28;20048;-66
2021/03/15 08:15:12;;;;;;;12.57;7.35;;;;;;;;;;5011652;28;20018;-64
2021/03/15 08:17:42;;;;;;;13.63;8.00;;;;;;;;;;4994507;28;20026;-64
2021/03/15 08:20:08;;;;;;;12.15;7.07;;;;;;;;;;4994625;28;20033;-65
2021/03/15 08:22:37;;;;;;;12.40;7.20;;;;;;;;;;5011937;28;20106;-66
2021/03/15 08:25:04;;;;;;;13.05;7.95;;;;;;;;;;5012237;28;20723;-66
2021/03/15 08:27:31;;;;;;;12.95;7.93;;;;;;;;;;4994665;28;20385;-66
2021/03/15 08:29:58;;;;;;;13.15;7.93;;;;;;;;;;4994421;28;20081;-66
2021/03/15 08:32:25;;;;;;;11.82;6.93;;;;;;;;;;5012016;28;20101;-66
2021/03/15 08:34:51;;;;;;;11.63;6.75;;;;;;;;;;5011592;28;20358;-66
2021/03/15 08:37:36;;;;;;;11.05;6.53;;;;;;;;;;4993565;28;20026;-66
2021/03/15 08:40:03;;;;;;;12.38;7.38;;;;;;;;;;4994140;28;20026;-66
2021/03/15 08:42:29;;;;;;;11.70;7.03;;;;;;;;;;4994565;28;20029;-66
2021/03/15 08:44:57;;;;;;;11.82;7.10;;;;;;;;;;5012033;28;20022;-65
2021/03/15 08:47:41;;;;;;;12.45;7.28;;;;;;;;;;4993999;28;20026;-66
2021/03/15 08:50:26;;;;;;;12.88;7.70;;;;;;;;;;4993738;28;20493;-65
2021/03/15 08:52:52;;;;;;;12.63;7.40;;;;;;;;;;5011788;28;20025;-67
2021/03/15 08:55:38;;;;;;;13.20;7.72;;;;;;;;;;5012108;28;20026;-64
2021/03/15 08:58:24;;;;;;;12.98;7.78;;;;;;;;;;4993765;28;20038;-65
2021/03/15 09:00:56;;;;;;;12.52;7.45;;;;;;;;;;5011506;28;20025;-65
2021/03/15 09:03:40;;;;;;;13.05;8.13;;;;;;;;;;5011806;28;20029;-63
2021/03/15 09:06:06;;;;;;;12.02;7.10;;;;;;;;;;5010974;28;20018;-64
2021/03/15 09:08:51;;;;;;;12.00;7.00;;;;;;;;;;5011614;28;20109;-63
2021/03/15 09:11:35;;;;;;;12.38;7.20;;;;;;;;;;5011308;28;20456;-62
2021/03/15 09:14:17;;;;;;;12.38;7.22;;;;;;;;;;4993436;28;20032;-62
2021/03/15 09:16:53;;;;;;;11.77;6.93;;;;;;;;;;5010926;28;20029;-65
2021/03/15 09:19:23;;;;;;;12.18;7.10;;;;;;;;;;4988761;28;20031;-66
2021/03/15 09:21:51;;;;;;;12.02;7.03;;;;;;;;;;4991089;28;20515;-67
2021/03/15 09:24:36;;;;;;;13.35;8.10;;;;;;;;;;5000955;28;20026;-68
2021/03/15 09:27:02;;;;;;;13.18;7.88;;;;;;;;;;4989923;28;20026;-66
2021/03/15 09:29:30;;;;;;;14.32;8.60;;;;;;;;;;4991724;28;20026;-65
2021/03/15 09:32:00;;;;;;;12.88;7.75;;;;;;;;;;4990570;28;20508;-65
2021/03/15 09:34:28;;;;;;;12.13;7.18;;;;;;;;;;4994947;28;20022;-66
2021/03/15 09:36:58;;;;;;;12.77;7.50;;;;;;;;;;5010559;28;20034;-64
2021/03/15 09:39:25;;;;;;;13.10;7.78;;;;;;;;;;4993688;28;20120;-64
2021/03/15 09:41:51;;;;;;;13.13;7.78;;;;;;;;;;5011059;28;20038;-67
2021/03/15 09:44:24;;;;;;;13.50;8.48;;;;;;;;;;4992897;28;20034;-67
2021/03/15 09:46:51;;;;;;;13.32;8.25;;;;;;;;;;5011895;28;20029;-64
2021/03/15 09:49:37;;;;;;;13.23;7.97;;;;;;;;;;4993916;28;20017;-65
2021/03/15 09:52:14;;;;;;;12.70;7.40;;;;;;;;;;5014833;28;20087;-66
2021/03/15 09:54:48;;;;;;;11.23;6.60;;;;;;;;;;5014819;28;20461;-62
2021/03/15 09:57:15;;;;;;;10.05;5.90;;;;;;;;;;4993176;28;20037;-64
2021/03/15 09:59:41;;;;;;;10.50;6.20;;;;;;;;;;5011320;28;20481;-64
2021/03/15 10:02:07;;;;;;;10.45;6.20;;;;;;;;;;5004556;28;20029;-62
2021/03/15 10:04:33;;;;;;;9.90;5.85;;;;;;;;;;4995697;28;20028;-63
2021/03/15 10:07:00;;;;;;;10.73;6.28;;;;;;;;;;4998914;28;20053;-62
2021/03/15 10:09:26;;;;;;;10.80;6.40;;;;;;;;;;5010586;28;20026;-63
2021/03/15 10:11:53;;;;;;;9.90;6.25;;;;;;;;;;4993461;28;20423;-63
2021/03/15 10:14:21;;;;;;;9.38;5.50;;;;;;;;;;4988060;28;20382;-61
2021/03/15 10:17:00;;;;;;;9.30;5.50;;;;;;;;;;4990599;28;20026;-64
2021/03/15 10:19:28;;;;;;;9.05;5.35;;;;;;;;;;4989344;28;20035;-64
2021/03/15 10:21:55;;;;;;;10.07;6.63;;;;;;;;;;4990882;28;20018;-63
2021/03/15 10:24:31;;;;;;;8.80;5.28;;;;;;;;;;4990859;28;20022;-63
2021/03/15 10:26:57;;;;;;;9.75;5.80;;;;;;;;;;4990546;28;20023;-62
2021/03/15 10:29:23;;;;;;;9.80;5.78;;;;;;;;;;4990905;28;20073;-58
2021/03/15 10:31:49;;;;;;;11.05;6.82;;;;;;;;;;4990792;28;20377;-60
2021/03/15 10:34:15;;;;;;;10.27;6.32;;;;;;;;;;4990311;28;20058;-60
2021/03/15 10:36:42;;;;;;;9.80;5.78;;;;;;;;;;4991142;28;20061;-59
2021/03/15 10:39:08;;;;;;;9.75;5.72;;;;;;;;;;4993248;28;20022;-61
2021/03/15 10:41:35;;;;;;;9.05;5.35;;;;;;;;;;4993964;28;20065;-60
2021/03/15 10:44:04;;;;;;;9.73;5.78;;;;;;;;;;4994662;28;20458;-62
2021/03/15 10:46:30;;;;;;;10.40;6.10;;;;;;;;;;4993209;28;20026;-59
2021/03/15 10:48:59;;;;;;;19.13;7.82;;;;;;;;;;4994666;28;20097;-58
2021/03/15 10:51:25;;;;;;;17.52;7.68;;;;;;;;;;4994563;28;20022;-62
2021/03/15 10:53:52;;;;;;;19.63;8.63;;;;;;;;;;4991493;28;20046;-58
2021/03/15 10:56:19;;;;;;;15.13;8.27;;;;;;;;;;4993968;28;20030;-62
2021/03/15 10:58:45;;;;;;;18.23;7.80;;;;;;;;;;4992787;28;20041;-61
2021/03/15 11:01:11;;;;;;;19.92;9.32;;;;;;;;;;4997339;28;20022;-62
2021/03/15 11:03:37;;;;;;;21.23;9.30;;;;;;;;;;5013189;28;20049;-64
2021/03/15 11:06:07;;;;;;;18.52;9.18;;;6.00;99.90;;;;;;5013025;28;20018;-63
2021/03/15 11:08:34;;;;;;;16.35;8.68;;;8.80;99.90;;;;;;5013075;28;20033;-62
2021/03/15 11:11:15;;;;;;;21.73;9.93;;;8.70;99.90;;;;;;5013018;28;20569;-55
2021/03/15 11:13:42;;;;;;;17.20;8.07;;;8.40;99.90;;;;;;5013741;28;20026;-61
2021/03/15 11:16:17;;;;;;;16.08;8.45;;;8.50;99.90;;;;;;4995875;28;20113;-60
2021/03/15 11:18:43;;;;;;;16.55;9.18;;;8.50;99.90;;;;;;5013697;28;20141;-61
2021/03/15 11:21:11;;;;;;;20.42;8.57;;;8.90;99.90;;;;;;4995899;28;20033;-59
2021/03/15 11:23:39;;;;;;;18.83;8.55;;;8.70;99.90;;;;;;5013582;28;20088;-58
2021/03/15 11:26:06;;;;;;;18.98;7.45;;;8.40;99.90;;;;;;5013281;28;20082;-59
2021/03/15 11:28:47;;;;;;;18.30;8.57;;;8.40;99.90;;;;;;5013617;28;20497;-59
2021/03/15 11:31:17;;;;;;;20.63;9.05;;;8.40;99.90;;;;;;4995676;28;20029;-61
2021/03/15 11:33:56;;;;;;;17.95;8.10;;;8.40;99.90;;;;;;4995663;28;20033;-60
2021/03/15 11:36:26;;;;;;;28.00;10.50;;;8.30;99.90;;;;;;5012829;28;20542;-62
2021/03/15 11:38:55;;;;;;;19.92;8.35;;;8.20;99.90;;;;;;5013163;28;20041;-59
2021/03/15 11:41:24;;;;;;;15.75;7.72;;;8.20;99.90;;;;;;5013062;28;20037;-56
2021/03/15 11:43:50;;;;;;;19.42;8.75;;;;;;;;;;5013262;28;20117;-62
2021/03/15 11:46:16;;;;;;;19.02;7.68;;;;;;;;;;4995129;28;20030;-61
2021/03/15 11:48:43;;;;;;;17.15;8.20;;;;;;;;;;5012682;28;20469;-60
2021/03/15 11:51:11;;;;;;;16.40;7.78;;;;;;;;;;5012773;28;20472;-60
2021/03/15 11:53:36;;;;;;;19.10;8.57;;;;;;;;;;5012932;28;20036;-52
2021/03/15 11:56:03;;;;;;;23.30;8.75;;;;;;;;;;5012848;28;20029;-57
2021/03/15 11:58:29;;;;;;;18.17;7.88;;;;;;;;;;5012460;28;20041;-60
2021/03/15 12:00:55;;;;;;;17.55;7.75;;;;;;;;;;5012401;28;20038;-60
2021/03/15 12:03:21;;;;;;;16.58;7.63;;;;;;;;;;4994798;28;20044;-60
2021/03/15 12:05:47;;;;;;;22.25;8.70;;;;;;;;;;5012532;28;20022;-59
2021/03/15 12:08:13;;;;;;;17.23;8.00;;;;;;;;;;5012163;28;20108;-62
2021/03/15 12:10:41;;;;;;;17.98;7.55;;;;;;;;;;5012627;28;20415;-63
2021/03/15 12:13:07;;;;;;;19.15;8.73;;;;;;;;;;5012904;28;20481;-61
2021/03/15 12:15:33;;;;;;;22.65;10.75;;;;;;;;;;5012342;28;20061;-63
2021/03/15 12:17:59;;;;;;;16.83;7.88;;;;;;;;;;4993310;28;20084;-60
2021/03/15 12:20:26;;;;;;;15.10;7.95;;;;;;;;;;5011425;28;20021;-59
2021/03/15 12:22:52;;;;;;;15.55;7.72;;;;;;;;;;5010811;28;20500;-61
2021/03/15 12:25:19;;;;;;;15.57;7.50;;;;;;;;;;5011191;28;20026;-60
2021/03/15 12:27:45;;;;;;;18.90;7.60;;;;;;;;;;4993449;28;20405;-62
2021/03/15 12:30:15;;;;;;;16.98;7.50;;;;;;;;;;5011281;28;20548;-60
2021/03/15 12:32:40;;;;;;;17.27;7.82;;;8.60;99.90;;;;;;5011258;28;20056;-58
2021/03/15 12:35:07;;;;;;;15.82;9.10;;;;;;;;;;5012024;28;20513;-62
2021/03/15 12:37:34;;;;;;;15.85;9.32;;;;;;;;;;5011279;28;20040;-61
2021/03/15 12:39:59;;;;;;;16.42;9.80;;;10.80;99.90;;;;;;5010622;28;20539;-58
2021/03/15 12:42:26;;;;;;;17.67;9.93;;;;;;;;;;5010535;28;20026;-61
2021/03/15 12:44:52;;;;;;;18.60;8.30;;;;;;;;;;5010671;28;20018;-58
2021/03/15 12:47:18;;;;;;;17.95;7.97;;;;;;;;;;5010694;28;20097;-60
2021/03/15 12:49:45;;;;;;;17.05;7.93;;;;;;;;;;5011484;28;20030;-57
2021/03/15 12:52:11;;;;;;;17.80;8.05;;;;;;;;;;5011390;28;20032;-60
2021/03/15 12:54:37;;;;;;;14.00;7.35;;;;;;;;;;5009573;28;20065;-61
2021/03/15 12:57:03;;;;;;;14.77;7.50;;;;;;;;;;4993253;28;20505;-60
2021/03/15 12:59:30;;;;;;;15.77;7.35;;;;;;;;;;5032050;23;20628;-59
2021/03/15 13:01:56;;;;;;;14.93;6.85;;;;;;;;;;4993741;28;20037;-57
2021/03/15 13:04:22;;;;;;;15.77;7.15;;;;;;;;;;5013141;28;20036;-55
2021/03/15 13:06:48;;;;;;;16.13;7.63;;;;;;;;;;5012747;28;20033;-56
2021/03/15 13:09:14;;;;;;;11.48;5.32;;;;;;;;;;5013049;28;20079;-61
2021/03/15 13:11:40;;;;;;;14.95;6.97;;;;;;;;;;4995650;28;20469;-55
2021/03/15 13:14:06;;;;;;;14.05;6.70;;;;;;;;;;5012882;28;20021;-58
2021/03/15 13:16:33;;;;;;;15.75;7.10;;;;;;;;;;5012067;28;20497;-56
2021/03/15 13:18:58;;;;;;;16.42;7.78;;;10.90;99.90;;;;;;4994638;28;20034;-57
2021/03/15 13:21:24;;;;;;;18.17;8.98;;;;;;;;;;4994988;28;20029;-55
2021/03/15 13:23:50;;;;;;;18.52;10.10;;;12.00;99.90;;;;;;4995201;28;20036;-56
2021/03/15 13:26:16;;;;;;;17.85;10.50;;;13.50;99.90;;;;;;5012041;28;20029;-57
2021/03/15 13:28:42;;;;;;;18.15;10.48;;;14.10;99.90;;;;;;5012493;28;20022;-57
2021/03/15 13:31:08;;;;;;;17.08;10.55;;;;;;;;;;5012058;28;20103;-59
2021/03/15 13:33:35;;;;;;;21.33;10.50;;;;;;;;;;5012246;28;20036;-55
2021/03/15 13:36:01;;;;;;;17.98;9.90;;;;;;;;;;5012070;28;20057;-55
2021/03/15 13:38:27;;;;;;;20.30;9.60;;;;;;;;;;5012187;28;20184;-56
2021/03/15 13:40:55;;;;;;;18.20;8.80;;;;;;;;;;4994699;28;20546;-53
2021/03/15 13:43:22;;;;;;;19.77;9.75;;;;;;;;;;5012428;28;20022;-57
2021/03/15 13:45:48;;;;;;;20.15;12.70;;;13.50;99.90;;;;;;4994479;28;20053;-56
2021/03/15 13:48:14;;;;;;;18.42;10.77;;;;;;;;;;5011657;28;20499;-55
2021/03/15 13:50:40;;;;;;;18.63;11.43;;;;;;;;;;4994507;28;20034;-53
2021/03/15 13:53:07;;;;;;;18.45;11.70;;;;;;;;;;4994627;28;20033;-55
2021/03/15 13:55:33;;;;;;;19.25;12.68;;;;;;;;;;4994386;28;20029;-58
2021/03/15 13:57:59;;;;;;;20.35;12.52;;;;;;;;;;4994254;28;20037;-53
2021/03/15 14:00:25;;;;;;;18.77;11.73;;;;;;;;;;5012199;28;20060;-59
2021/03/15 14:02:51;;;;;;;19.40;11.38;;;;;;;;;;5011979;28;20022;-57
2021/03/15 14:05:17;;;;;;;19.92;11.02;;;;;;;;;;5013107;28;20025;-54
2021/03/15 14:07:44;;;;;;;17.38;9.75;;;;;;;;;;5017676;28;20029;-60
2021/03/15 14:10:10;;;;;;;22.30;10.23;;;;;;;;;;5011984;28;20486;-51
2021/03/15 14:12:37;;;;;;;18.63;11.20;;;;;;;;;;4997433;28;20113;-51
2021/03/15 14:15:06;;;;;;;17.25;11.50;;;;;;;;;;5000836;28;20055;-52
2021/03/15 14:17:32;;;;;;;20.70;12.05;;;;;;;;;;4998341;28;20029;-53
2021/03/15 14:19:59;;;;;;;18.83;12.10;;;;;;;;;;4998357;28;20022;-58
2021/03/15 14:22:25;;;;;;;19.70;12.38;;;;;;;;;;5026828;28;20490;-52
2021/03/15 14:24:52;;;;;;;28.10;14.43;;;;;;;;;;5023931;28;20028;-54
2021/03/15 14:27:18;;;;;;;18.38;12.68;;;11.80;99.90;;;;;;5005708;28;20036;-58